Terminal Aerodrome Forecast
Issued by NWS Jackson, KY

Home | Current Version | Previous Version | Text Only | Print | Product List | Glossary On
Versions: 1 2 3 4 5 6 7 8 9 10 11 12 13 14 15 16
219
FTUS43 KJKL 252320
TAFLOZ
TAF
KLOZ 252320Z 2600/2624 26003KT P6SM SCT050
     FM261000 00000KT 3SM BR BKN010
     FM261200 17002KT P6SM FEW120
     FM261500 19007KT P6SM SKC=

USA.gov is the U.S. government's official web portal to all federal, state and local government web resources and services.